sensor_id;sensor_type;location;lat;lon;timestamp;pressure;altitude;pressure_sealevel;temperature;humidity
41222;BME280;26952;42.884;23.918;2022-11-12T00:01:08;97272.22;;;8.29;100.00
41222;BME280;26952;42.884;23.918;2022-11-12T00:03:34;97261.06;;;8.26;100.00
41222;BME280;26952;42.884;23.918;2022-11-12T00:05:59;97266.09;;;8.18;100.00
41222;BME280;26952;42.884;23.918;2022-11-12T00:08:24;97275.41;;;8.22;100.00
41222;BME280;26952;42.884;23.918;2022-11-12T00:10:50;97275.91;;;8.27;100.00
41222;BME280;26952;42.884;23.918;2022-11-12T00:13:15;97289.09;;;8.27;100.00
41222;BME280;26952;42.884;23.918;2022-11-12T00:15:41;97290.81;;;8.28;100.00
41222;BME280;26952;42.884;23.918;2022-11-12T00:18:06;97292.22;;;8.21;100.00
41222;BME280;26952;42.884;23.918;2022-11-12T00:20:32;97292.72;;;8.26;100.00
41222;BME280;26952;42.884;23.918;2022-11-12T00:22:58;97305.03;;;8.36;100.00
41222;BME280;26952;42.884;23.918;2022-11-12T00:25:23;97301.91;;;8.43;100.00
41222;BME280;26952;42.884;23.918;2022-11-12T00:27:49;97301.06;;;8.42;100.00
41222;BME280;26952;42.884;23.918;2022-11-12T00:30:14;97297.03;;;8.38;100.00
41222;BME280;26952;42.884;23.918;2022-11-12T00:32:40;97292.22;;;8.32;100.00
41222;BME280;26952;42.884;23.918;2022-11-12T00:35:06;97290.56;;;8.31;100.00
41222;BME280;26952;42.884;23.918;2022-11-12T00:37:32;97289.69;;;8.30;100.00
41222;BME280;26952;42.884;23.918;2022-11-12T00:39:57;97293.56;;;8.26;100.00
41222;BME280;26952;42.884;23.918;2022-11-12T00:42:23;97288.28;;;8.26;100.00
41222;BME280;26952;42.884;23.918;2022-11-12T00:44:48;97290.56;;;8.31;100.00
41222;BME280;26952;42.884;23.918;2022-11-12T00:47:14;97293.69;;;8.25;100.00
41222;BME280;26952;42.884;23.918;2022-11-12T00:49:40;97288.72;;;8.20;100.00
41222;BME280;26952;42.884;23.918;2022-11-12T00:52:05;97273.75;;;8.21;100.00
41222;BME280;26952;42.884;23.918;2022-11-12T00:54:31;97269.31;;;8.21;100.00
41222;BME280;26952;42.884;23.918;2022-11-12T00:56:56;97244.16;;;8.06;100.00
41222;BME280;26952;42.884;23.918;2022-11-12T00:59:21;97267.88;;;8.17;100.00
41222;BME280;26952;42.884;23.918;2022-11-12T01:01:47;97272.56;;;8.14;100.00
41222;BME280;26952;42.884;23.918;2022-11-12T01:04:12;97275.91;;;8.16;100.00
41222;BME280;26952;42.884;23.918;2022-11-12T01:06:39;97278.41;;;8.17;100.00
41222;BME280;26952;42.884;23.918;2022-11-12T01:09:05;97281.66;;;8.21;100.00
41222;BME280;26952;42.884;23.918;2022-11-12T01:11:31;97264.88;;;8.11;100.00
41222;BME280;26952;42.884;23.918;2022-11-12T01:14:04;97284.41;;;8.19;100.00
41222;BME280;26952;42.884;23.918;2022-11-12T01:16:34;97280.94;;;8.19;100.00
41222;BME280;26952;42.884;23.918;2022-11-12T01:19:01;97272.47;;;8.26;100.00
41222;BME280;26952;42.884;23.918;2022-11-12T01:21:29;97257.22;;;8.08;100.00
41222;BME280;26952;42.884;23.918;2022-11-12T01:23:57;97252.69;;;8.10;100.00
41222;BME280;26952;42.884;23.918;2022-11-12T01:26:22;97237.81;;;7.98;100.00
41222;BME280;26952;42.884;23.918;2022-11-12T01:28:48;97263.69;;;8.15;100.00
41222;BME280;26952;42.884;23.918;2022-11-12T01:33:43;97254.47;;;8.09;100.00
41222;BME280;26952;42.884;23.918;2022-11-12T01:36:09;97246.44;;;8.11;100.00
41222;BME280;26952;42.884;23.918;2022-11-12T01:38:36;97247.06;;;8.03;100.00
41222;BME280;26952;42.884;23.918;2022-11-12T01:41:03;97242.84;;;8.01;100.00
41222;BME280;26952;42.884;23.918;2022-11-12T01:43:28;97238.78;;;7.97;100.00
41222;BME280;26952;42.884;23.918;2022-11-12T01:45:54;97250.19;;;7.97;100.00
41222;BME280;26952;42.884;23.918;2022-11-12T01:50:49;97252.69;;;7.88;100.00
41222;BME280;26952;42.884;23.918;2022-11-12T01:53:16;97252.69;;;7.88;100.00
41222;BME280;26952;42.884;23.918;2022-11-12T01:55:42;97244.22;;;7.84;100.00
41222;BME280;26952;42.884;23.918;2022-11-12T01:58:13;97252.00;;;7.86;100.00
41222;BME280;26952;42.884;23.918;2022-11-12T02:00:40;97239.53;;;7.77;100.00
41222;BME280;26952;42.884;23.918;2022-11-12T02:03:19;97243.84;;;7.78;100.00
41222;BME280;26952;42.884;23.918;2022-11-12T02:05:46;97244.09;;;7.86;100.00
41222;BME280;26952;42.884;23.918;2022-11-12T02:08:13;97246.25;;;7.81;100.00
41222;BME280;26952;42.884;23.918;2022-11-12T02:10:39;97227.09;;;7.68;100.00
41222;BME280;26952;42.884;23.918;2022-11-12T02:13:06;97229.00;;;7.55;100.00
41222;BME280;26952;42.884;23.918;2022-11-12T02:15:51;97243.38;;;7.51;100.00
41222;BME280;26952;42.884;23.918;2022-11-12T02:18:16;97235.22;;;7.43;100.00
41222;BME280;26952;42.884;23.918;2022-11-12T02:20:42;97234.53;;;7.41;100.00
41222;BME280;26952;42.884;23.918;2022-11-12T02:23:07;97234.38;;;7.31;100.00
41222;BME280;26952;42.884;23.918;2022-11-12T02:25:34;97231.03;;;7.18;100.00
41222;BME280;26952;42.884;23.918;2022-11-12T02:28:02;97226.84;;;7.16;100.00
41222;BME280;26952;42.884;23.918;2022-11-12T02:30:34;97231.84;;;7.07;100.00
41222;BME280;26952;42.884;23.918;2022-11-12T02:33:01;97228.94;;;6.88;100.00
41222;BME280;26952;42.884;23.918;2022-11-12T02:35:26;97233.84;;;6.82;100.00
41222;BME280;26952;42.884;23.918;2022-11-12T02:37:52;97247.09;;;6.80;100.00
41222;BME280;26952;42.884;23.918;2022-11-12T02:40:17;97249.03;;;6.89;100.00
41222;BME280;26952;42.884;23.918;2022-11-12T02:42:42;97239.44;;;6.77;100.00
41222;BME280;26952;42.884;23.918;2022-11-12T02:45:09;97251.16;;;6.84;100.00
41222;BME280;26952;42.884;23.918;2022-11-12T02:47:34;97250.19;;;6.74;100.00
41222;BME280;26952;42.884;23.918;2022-11-12T02:50:00;97260.00;;;6.72;100.00
41222;BME280;26952;42.884;23.918;2022-11-12T02:52:25;97252.72;;;6.76;100.00
41222;BME280;26952;42.884;23.918;2022-11-12T02:54:51;97247.28;;;6.66;100.00
41222;BME280;26952;42.884;23.918;2022-11-12T02:57:16;97248.88;;;6.69;100.00
41222;BME280;26952;42.884;23.918;2022-11-12T02:59:41;97245.84;;;6.62;100.00
41222;BME280;26952;42.884;23.918;2022-11-12T03:02:07;97237.56;;;6.56;100.00
41222;BME280;26952;42.884;23.918;2022-11-12T03:04:32;97248.00;;;6.68;100.00
41222;BME280;26952;42.884;23.918;2022-11-12T03:06:58;97250.38;;;6.60;100.00
41222;BME280;26952;42.884;23.918;2022-11-12T03:09:23;97246.31;;;6.56;100.00
41222;BME280;26952;42.884;23.918;2022-11-12T03:11:48;97254.09;;;6.58;100.00
41222;BME280;26952;42.884;23.918;2022-11-12T03:14:14;97244.63;;;6.55;100.00
41222;BME280;26952;42.884;23.918;2022-11-12T03:16:39;97247.00;;;6.58;100.00
41222;BME280;26952;42.884;23.918;2022-11-12T03:19:05;97248.47;;;6.62;100.00
41222;BME280;26952;42.884;23.918;2022-11-12T03:21:30;97245.38;;;6.68;100.00
41222;BME280;26952;42.884;23.918;2022-11-12T03:23:55;97249.91;;;6.66;100.00
41222;BME280;26952;42.884;23.918;2022-11-12T03:26:21;97235.31;;;6.62;100.00
41222;BME280;26952;42.884;23.918;2022-11-12T03:28:46;97238.81;;;6.63;100.00
41222;BME280;26952;42.884;23.918;2022-11-12T03:31:12;97233.63;;;6.61;100.00
41222;BME280;26952;42.884;23.918;2022-11-12T03:33:37;97216.19;;;6.60;100.00
41222;BME280;26952;42.884;23.918;2022-11-12T03:36:03;97225.66;;;6.63;100.00
41222;BME280;26952;42.884;23.918;2022-11-12T03:38:29;97232.69;;;6.62;100.00
41222;BME280;26952;42.884;23.918;2022-11-12T03:40:54;97232.81;;;6.61;100.00
41222;BME280;26952;42.884;23.918;2022-11-12T03:43:20;97234.13;;;6.66;100.00
41222;BME280;26952;42.884;23.918;2022-11-12T03:45:45;97234.75;;;6.70;100.00
41222;BME280;26952;42.884;23.918;2022-11-12T03:48:11;97233.69;;;6.72;100.00
41222;BME280;26952;42.884;23.918;2022-11-12T03:50:36;97232.97;;;6.70;100.00
41222;BME280;26952;42.884;23.918;2022-11-12T03:53:02;97232.97;;;6.70;100.00
41222;BME280;26952;42.884;23.918;2022-11-12T03:55:28;97240.03;;;6.81;100.00
41222;BME280;26952;42.884;23.918;2022-11-12T03:57:55;97243.88;;;6.77;100.00
41222;BME280;26952;42.884;23.918;2022-11-12T04:00:22;97249.59;;;6.71;100.00
41222;BME280;26952;42.884;23.918;2022-11-12T04:02:48;97246.84;;;6.72;100.00
41222;BME280;26952;42.884;23.918;2022-11-12T04:05:14;97243.63;;;6.80;100.00
41222;BME280;26952;42.884;23.918;2022-11-12T04:08:03;97244.25;;;6.83;100.00
41222;BME280;26952;42.884;23.918;2022-11-12T04:10:48;97255.38;;;6.87;100.00
41222;BME280;26952;42.884;23.918;2022-11-12T04:13:14;97253.00;;;6.84;100.00
41222;BME280;26952;42.884;23.918;2022-11-12T04:16:06;97258.72;;;6.89;100.00
41222;BME280;26952;42.884;23.918;2022-11-12T04:18:52;97235.63;;;6.81;100.00
41222;BME280;26952;42.884;23.918;2022-11-12T04:21:42;97247.38;;;6.88;100.00
41222;BME280;26952;42.884;23.918;2022-11-12T04:24:41;97250.72;;;6.90;100.00
41222;BME280;26952;42.884;23.918;2022-11-12T04:27:44;97254.78;;;6.83;100.00
41222;BME280;26952;42.884;23.918;2022-11-12T04:30:09;97227.72;;;6.81;100.00
41222;BME280;26952;42.884;23.918;2022-11-12T04:32:52;97250.34;;;6.84;100.00
41222;BME280;26952;42.884;23.918;2022-11-12T04:35:20;97251.16;;;6.84;100.00
41222;BME280;26952;42.884;23.918;2022-11-12T04:37:46;97260.66;;;6.87;100.00
41222;BME280;26952;42.884;23.918;2022-11-12T04:40:13;97265.69;;;6.90;100.00
41222;BME280;26952;42.884;23.918;2022-11-12T04:42:58;97254.53;;;6.86;100.00
41222;BME280;26952;42.884;23.918;2022-11-12T04:45:44;97256.44;;;6.84;100.00
41222;BME280;26952;42.884;23.918;2022-11-12T04:48:10;97261.19;;;6.79;100.00
41222;BME280;26952;42.884;23.918;2022-11-12T04:50:36;97258.19;;;6.73;100.00
41222;BME280;26952;42.884;23.918;2022-11-12T04:53:02;97254.00;;;6.70;100.00
41222;BME280;26952;42.884;23.918;2022-11-12T04:55:27;97268.50;;;6.76;100.00
41222;BME280;26952;42.884;23.918;2022-11-12T04:57:53;97270.78;;;6.80;100.00
41222;BME280;26952;42.884;23.918;2022-11-12T05:00:18;97275.22;;;6.80;100.00
41222;BME280;26952;42.884;23.918;2022-11-12T05:02:43;97281.94;;;6.84;100.00
41222;BME280;26952;42.884;23.918;2022-11-12T05:05:09;97277.00;;;6.79;100.00
41222;BME280;26952;42.884;23.918;2022-11-12T05:07:34;97274.59;;;6.76;100.00
41222;BME280;26952;42.884;23.918;2022-11-12T05:10:00;97288.13;;;6.83;100.00
41222;BME280;26952;42.884;23.918;2022-11-12T05:12:25;97284.44;;;6.85;100.00
41222;BME280;26952;42.884;23.918;2022-11-12T05:14:51;97276.88;;;6.81;100.00
41222;BME280;26952;42.884;23.918;2022-11-12T05:17:16;97282.75;;;6.84;100.00
41222;BME280;26952;42.884;23.918;2022-11-12T05:19:41;97284.94;;;6.90;100.00
41222;BME280;26952;42.884;23.918;2022-11-12T05:22:09;97275.09;;;6.81;100.00
41222;BME280;26952;42.884;23.918;2022-11-12T05:27:03;97286.97;;;6.87;100.00
41222;BME280;26952;42.884;23.918;2022-11-12T05:29:28;97284.44;;;6.85;100.00
41222;BME280;26952;42.884;23.918;2022-11-12T05:31:54;97293.66;;;6.91;100.00
41222;BME280;26952;42.884;23.918;2022-11-12T05:34:20;97297.06;;;7.04;100.00
41222;BME280;26952;42.884;23.918;2022-11-12T05:36:45;97293.56;;;7.03;100.00
41222;BME280;26952;42.884;23.918;2022-11-12T05:39:10;97294.06;;;7.08;100.00
41222;BME280;26952;42.884;23.918;2022-11-12T05:41:36;97305.31;;;7.11;100.00
41222;BME280;26952;42.884;23.918;2022-11-12T05:44:01;97301.75;;;7.12;100.00
41222;BME280;26952;42.884;23.918;2022-11-12T05:46:27;97317.09;;;7.18;100.00
41222;BME280;26952;42.884;23.918;2022-11-12T05:48:52;97315.19;;;7.20;100.00
41222;BME280;26952;42.884;23.918;2022-11-12T05:51:18;97312.69;;;7.29;100.00
41222;BME280;26952;42.884;23.918;2022-11-12T05:53:43;97312.56;;;7.31;100.00
41222;BME280;26952;42.884;23.918;2022-11-12T05:56:09;97320.50;;;7.42;100.00
41222;BME280;26952;42.884;23.918;2022-11-12T05:58:36;97315.22;;;7.42;100.00
41222;BME280;26952;42.884;23.918;2022-11-12T06:01:01;97322.91;;;7.56;100.00
41222;BME280;26952;42.884;23.918;2022-11-12T06:03:27;97323.25;;;7.62;100.00
41222;BME280;26952;42.884;23.918;2022-11-12T06:05:52;97327.72;;;7.62;100.00
41222;BME280;26952;42.884;23.918;2022-11-12T06:08:18;97325.31;;;7.70;100.00
41222;BME280;26952;42.884;23.918;2022-11-12T06:10:50;97334.06;;;7.81;100.00
41222;BME280;26952;42.884;23.918;2022-11-12T06:13:16;97334.19;;;7.91;100.00
41222;BME280;26952;42.884;23.918;2022-11-12T06:15:42;97325.31;;;7.81;100.00
41222;BME280;26952;42.884;23.918;2022-11-12T06:18:08;97330.72;;;7.90;100.00
41222;BME280;26952;42.884;23.918;2022-11-12T06:20:33;97338.03;;;7.87;100.00
41222;BME280;26952;42.884;23.918;2022-11-12T06:22:59;97330.00;;;7.88;100.00
41222;BME280;26952;42.884;23.918;2022-11-12T06:25:25;97330.59;;;8.03;100.00
41222;BME280;26952;42.884;23.918;2022-11-12T06:27:50;97337.19;;;8.08;100.00
41222;BME280;26952;42.884;23.918;2022-11-12T06:30:16;97342.56;;;8.18;100.00
41222;BME280;26952;42.884;23.918;2022-11-12T06:32:41;97336.84;;;8.24;100.00
41222;BME280;26952;42.884;23.918;2022-11-12T06:35:09;97344.03;;;8.33;100.00
41222;BME280;26952;42.884;23.918;2022-11-12T06:37:35;97350.81;;;8.47;100.00
41222;BME280;26952;42.884;23.918;2022-11-12T06:40:00;97347.59;;;8.54;100.00
41222;BME280;26952;42.884;23.918;2022-11-12T06:42:26;97353.09;;;8.62;100.00
41222;BME280;26952;42.884;23.918;2022-11-12T06:44:51;97354.50;;;8.66;100.00
41222;BME280;26952;42.884;23.918;2022-11-12T06:47:16;97354.00;;;8.72;100.00
41222;BME280;26952;42.884;23.918;2022-11-12T06:49:42;97354.00;;;8.72;100.00
41222;BME280;26952;42.884;23.918;2022-11-12T06:52:07;97359.41;;;8.82;100.00
41222;BME280;26952;42.884;23.918;2022-11-12T06:54:32;97349.06;;;8.79;100.00
41222;BME280;26952;42.884;23.918;2022-11-12T06:56:58;97357.59;;;8.82;100.00
41222;BME280;26952;42.884;23.918;2022-11-12T06:59:23;97343.06;;;8.88;100.00
41222;BME280;26952;42.884;23.918;2022-11-12T07:01:48;97339.56;;;8.87;100.00
41222;BME280;26952;42.884;23.918;2022-11-12T07:04:14;97356.53;;;9.05;100.00
41222;BME280;26952;42.884;23.918;2022-11-12T07:06:39;97352.94;;;9.06;100.00
41222;BME280;26952;42.884;23.918;2022-11-12T07:09:05;97357.66;;;9.03;100.00
41222;BME280;26952;42.884;23.918;2022-11-12T07:11:31;97364.50;;;8.94;100.00
41222;BME280;26952;42.884;23.918;2022-11-12T07:13:56;97367.75;;;8.87;100.00
41222;BME280;26952;42.884;23.918;2022-11-12T07:16:21;97366.94;;;8.86;100.00
41222;BME280;26952;42.884;23.918;2022-11-12T07:18:47;97366.09;;;8.86;100.00
41222;BME280;26952;42.884;23.918;2022-11-12T07:21:19;97363.31;;;8.87;100.00
41222;BME280;26952;42.884;23.918;2022-11-12T07:23:45;97356.72;;;8.93;100.00
41222;BME280;26952;42.884;23.918;2022-11-12T07:26:16;97361.09;;;9.03;100.00
41222;BME280;26952;42.884;23.918;2022-11-12T07:28:43;97357.97;;;9.09;100.00
41222;BME280;26952;42.884;23.918;2022-11-12T07:31:10;97357.66;;;9.23;100.00
41222;BME280;26952;42.884;23.918;2022-11-12T07:33:36;97356.31;;;9.29;100.00
41222;BME280;26952;42.884;23.918;2022-11-12T07:36:07;97354.09;;;9.13;100.00
41222;BME280;26952;42.884;23.918;2022-11-12T07:38:34;97350.50;;;9.14;100.00
41222;BME280;26952;42.884;23.918;2022-11-12T07:41:11;97360.78;;;9.28;100.00
41222;BME280;26952;42.884;23.918;2022-11-12T07:43:38;97352.38;;;9.44;100.00
41222;BME280;26952;42.884;23.918;2022-11-12T07:46:10;97353.09;;;9.66;100.00
41222;BME280;26952;42.884;23.918;2022-11-12T07:48:37;97346.78;;;9.78;100.00
41222;BME280;26952;42.884;23.918;2022-11-12T07:51:05;97356.56;;;9.88;100.00
41222;BME280;26952;42.884;23.918;2022-11-12T07:53:31;97352.78;;;9.80;100.00
41222;BME280;26952;42.884;23.918;2022-11-12T07:56:00;97353.47;;;9.82;100.00
41222;BME280;26952;42.884;23.918;2022-11-12T07:58:27;97359.91;;;9.90;100.00
41222;BME280;26952;42.884;23.918;2022-11-12T08:00:54;97357.41;;;9.88;100.00
41222;BME280;26952;42.884;23.918;2022-11-12T08:03:20;97365.09;;;9.70;100.00
41222;BME280;26952;42.884;23.918;2022-11-12T08:05:45;97377.41;;;9.81;100.00
41222;BME280;26952;42.884;23.918;2022-11-12T08:08:11;97370.13;;;9.73;100.00
41222;BME280;26952;42.884;23.918;2022-11-12T08:10:37;97371.78;;;9.74;100.00
41222;BME280;26952;42.884;23.918;2022-11-12T08:13:03;97357.63;;;9.75;100.00
41222;BME280;26952;42.884;23.918;2022-11-12T08:15:29;97363.34;;;9.80;100.00
41222;BME280;26952;42.884;23.918;2022-11-12T08:17:54;97370.81;;;9.96;100.00
41222;BME280;26952;42.884;23.918;2022-11-12T08:20:19;97365.81;;;10.03;100.00
41222;BME280;26952;42.884;23.918;2022-11-12T08:22:45;97359.97;;;9.99;100.00
41222;BME280;26952;42.884;23.918;2022-11-12T08:25:10;97365.31;;;10.09;100.00
41222;BME280;26952;42.884;23.918;2022-11-12T08:27:36;97370.00;;;10.05;100.00
41222;BME280;26952;42.884;23.918;2022-11-12T08:30:02;97367.47;;;10.15;100.00
41222;BME280;26952;42.884;23.918;2022-11-12T08:32:27;97370.28;;;10.23;100.00
41222;BME280;26952;42.884;23.918;2022-11-12T08:34:53;97367.53;;;10.34;100.00
41222;BME280;26952;42.884;23.918;2022-11-12T08:37:18;97383.69;;;10.31;100.00
41222;BME280;26952;42.884;23.918;2022-11-12T08:39:44;97379.06;;;10.33;100.00
41222;BME280;26952;42.884;23.918;2022-11-12T08:42:09;97381.38;;;10.47;100.00
41222;BME280;26952;42.884;23.918;2022-11-12T08:44:34;97375.19;;;10.37;100.00
41222;BME280;26952;42.884;23.918;2022-11-12T08:47:00;97377.09;;;10.25;100.00
41222;BME280;26952;42.884;23.918;2022-11-12T08:49:25;97368.84;;;10.19;100.00
41222;BME280;26952;42.884;23.918;2022-11-12T08:51:51;97381.03;;;10.31;100.00
41222;BME280;26952;42.884;23.918;2022-11-12T08:54:16;97374.41;;;10.16;100.00
41222;BME280;26952;42.884;23.918;2022-11-12T08:56:42;97372.59;;;9.96;100.00
41222;BME280;26952;42.884;23.918;2022-11-12T08:59:07;97363.94;;;9.63;100.00
41222;BME280;26952;42.884;23.918;2022-11-12T09:01:33;97385.59;;;9.57;100.00
41222;BME280;26952;42.884;23.918;2022-11-12T09:03:58;97385.88;;;9.54;100.00
41222;BME280;26952;42.884;23.918;2022-11-12T09:06:23;97372.63;;;9.34;100.00
41222;BME280;26952;42.884;23.918;2022-11-12T09:08:49;97387.41;;;9.36;100.00
41222;BME280;26952;42.884;23.918;2022-11-12T09:11:14;97387.78;;;9.32;100.00
41222;BME280;26952;42.884;23.918;2022-11-12T09:13:40;97382.97;;;9.26;100.00
41222;BME280;26952;42.884;23.918;2022-11-12T09:16:06;97376.16;;;9.23;100.00
41222;BME280;26952;42.884;23.918;2022-11-12T09:18:35;97379.59;;;9.35;100.00
41222;BME280;26952;42.884;23.918;2022-11-12T09:21:03;97372.47;;;9.46;100.00
41222;BME280;26952;42.884;23.918;2022-11-12T09:23:29;97373.09;;;9.59;100.00
41222;BME280;26952;42.884;23.918;2022-11-12T09:25:55;97371.66;;;9.76;100.00
41222;BME280;26952;42.884;23.918;2022-11-12T09:28:22;97363.91;;;9.84;100.00
41222;BME280;26952;42.884;23.918;2022-11-12T09:30:49;97339.88;;;9.66;100.00
41222;BME280;26952;42.884;23.918;2022-11-12T09:33:17;97374.00;;;9.90;100.00
41222;BME280;26952;42.884;23.918;2022-11-12T09:35:44;97371.06;;;9.93;100.00
41222;BME280;26952;42.884;23.918;2022-11-12T09:38:10;97378.34;;;10.01;100.00
41222;BME280;26952;42.884;23.918;2022-11-12T09:43:26;97362.56;;;9.90;100.00
41222;BME280;26952;42.884;23.918;2022-11-12T09:45:56;97373.59;;;9.95;100.00
41222;BME280;26952;42.884;23.918;2022-11-12T09:48:28;97372.03;;;9.92;100.00
41222;BME280;26952;42.884;23.918;2022-11-12T09:50:59;97361.84;;;9.88;100.00
41222;BME280;26952;42.884;23.918;2022-11-12T09:53:41;97363.09;;;9.83;100.00
41222;BME280;26952;42.884;23.918;2022-11-12T09:56:11;97361.84;;;9.88;100.00
41222;BME280;26952;42.884;23.918;2022-11-12T09:58:37;97359.19;;;9.88;100.00
41222;BME280;26952;42.884;23.918;2022-11-12T10:01:21;97370.97;;;9.74;100.00
41222;BME280;26952;42.884;23.918;2022-11-12T10:09:23;97375.66;;;9.29;100.00
41222;BME280;26952;42.884;23.918;2022-11-12T10:18:48;97384.19;;;8.90;100.00
41222;BME280;26952;42.884;23.918;2022-11-12T10:21:19;97373.72;;;8.68;100.00
41222;BME280;26952;42.884;23.918;2022-11-12T10:23:51;97380.41;;;8.72;100.00
41222;BME280;26952;42.884;23.918;2022-11-12T10:26:20;97374.41;;;8.81;100.00
41222;BME280;26952;42.884;23.918;2022-11-12T10:31:18;97366.44;;;8.92;100.00
41222;BME280;26952;42.884;23.918;2022-11-12T10:33:44;97380.63;;;8.91;100.00
41222;BME280;26952;42.884;23.918;2022-11-12T10:36:26;97379.59;;;9.03;100.00
41222;BME280;26952;42.884;23.918;2022-11-12T10:38:54;97376.56;;;9.19;100.00
41222;BME280;26952;42.884;23.918;2022-11-12T10:41:25;97375.50;;;9.10;100.00
41222;BME280;26952;42.884;23.918;2022-11-12T10:44:02;97369.53;;;8.97;100.00
41222;BME280;26952;42.884;23.918;2022-11-12T10:46:34;97378.69;;;8.82;100.00
41222;BME280;26952;42.884;23.918;2022-11-12T10:49:06;97364.72;;;9.02;100.00
41222;BME280;26952;42.884;23.918;2022-11-12T10:51:34;97358.88;;;9.19;100.00
41222;BME280;26952;42.884;23.918;2022-11-12T10:56:51;97363.34;;;9.60;100.00
41222;BME280;26952;42.884;23.918;2022-11-12T10:59:21;97350.00;;;9.61;100.00
41222;BME280;26952;42.884;23.918;2022-11-12T11:01:58;97366.22;;;9.77;100.00
41222;BME280;26952;42.884;23.918;2022-11-12T11:04:32;97364.16;;;10.02;100.00
41222;BME280;26952;42.884;23.918;2022-11-12T11:07:14;97369.53;;;10.11;100.00
41222;BME280;26952;42.884;23.918;2022-11-12T11:09:51;97367.38;;;10.26;100.00
41222;BME280;26952;42.884;23.918;2022-11-12T11:12:35;97364.19;;;10.32;100.00
41222;BME280;26952;42.884;23.918;2022-11-12T11:15:21;97366.09;;;10.00;100.00
41222;BME280;26952;42.884;23.918;2022-11-12T11:17:47;97364.34;;;9.89;100.00
41222;BME280;26952;42.884;23.918;2022-11-12T11:22:55;97361.06;;;9.97;100.00
41222;BME280;26952;42.884;23.918;2022-11-12T11:25:27;97367.13;;;9.88;100.00
41222;BME280;26952;42.884;23.918;2022-11-12T11:30:58;97356.59;;;9.97;100.00
41222;BME280;26952;42.884;23.918;2022-11-12T11:36:23;97367.75;;;10.01;100.00
41222;BME280;26952;42.884;23.918;2022-11-12T11:41:43;97358.56;;;9.74;100.00
41222;BME280;26952;42.884;23.918;2022-11-12T11:58:22;97344.94;;;10.30;100.00
41222;BME280;26952;42.884;23.918;2022-11-12T12:01:03;97351.38;;;10.37;100.00
41222;BME280;26952;42.884;23.918;2022-11-12T12:11:47;97337.25;;;10.66;100.00
41222;BME280;26952;42.884;23.918;2022-11-12T12:19:45;97341.00;;;10.83;100.00
41222;BME280;26952;42.884;23.918;2022-11-12T12:22:24;97345.22;;;10.76;100.00
41222;BME280;26952;42.884;23.918;2022-11-12T12:25:02;97332.69;;;10.78;100.00
41222;BME280;26952;42.884;23.918;2022-11-12T12:27:35;97337.84;;;10.79;100.00
41222;BME280;26952;42.884;23.918;2022-11-12T12:30:05;97337.56;;;10.82;100.00
41222;BME280;26952;42.884;23.918;2022-11-12T12:40:34;97348.66;;;10.67;100.00
41222;BME280;26952;42.884;23.918;2022-11-12T12:43:07;97349.66;;;10.66;100.00
41222;BME280;26952;42.884;23.918;2022-11-12T12:45:41;97346.84;;;10.58;100.00
41222;BME280;26952;42.884;23.918;2022-11-12T12:48:23;97358.00;;;10.61;100.00
41222;BME280;26952;42.884;23.918;2022-11-12T12:50:50;97353.19;;;10.46;100.00
41222;BME280;26952;42.884;23.918;2022-11-12T12:53:30;97346.09;;;10.37;100.00
41222;BME280;26952;42.884;23.918;2022-11-12T12:56:00;97345.41;;;10.44;100.00
41222;BME280;26952;42.884;23.918;2022-11-12T12:58:32;97328.94;;;10.41;100.00
41222;BME280;26952;42.884;23.918;2022-11-12T13:01:01;97329.75;;;10.22;100.00
41222;BME280;26952;42.884;23.918;2022-11-12T13:06:15;97327.81;;;10.34;100.00
41222;BME280;26952;42.884;23.918;2022-11-12T13:40:15;97330.59;;;10.02;100.00
41222;BME280;26952;42.884;23.918;2022-11-12T13:42:42;97330.44;;;10.04;100.00
41222;BME280;26952;42.884;23.918;2022-11-12T13:45:14;97329.72;;;10.13;100.00
41222;BME280;26952;42.884;23.918;2022-11-12T13:47:40;97335.59;;;10.26;100.00
41222;BME280;26952;42.884;23.918;2022-11-12T13:50:08;97335.47;;;10.27;100.00
41222;BME280;26952;42.884;23.918;2022-11-12T13:52:34;97337.72;;;10.32;100.00
41222;BME280;26952;42.884;23.918;2022-11-12T13:55:06;97336.72;;;10.33;100.00
41222;BME280;26952;42.884;23.918;2022-11-12T13:57:36;97335.88;;;10.23;100.00
41222;BME280;26952;42.884;23.918;2022-11-12T14:02:36;97340.47;;;10.21;100.00
41222;BME280;26952;42.884;23.918;2022-11-12T14:05:11;97337.94;;;10.19;100.00
41222;BME280;26952;42.884;23.918;2022-11-12T14:13:00;97343.50;;;9.96;100.00
41222;BME280;26952;42.884;23.918;2022-11-12T14:15:47;97342.38;;;9.89;100.00
41222;BME280;26952;42.884;23.918;2022-11-12T14:21:20;97337.22;;;9.66;100.00
41222;BME280;26952;42.884;23.918;2022-11-12T14:23:48;97347.00;;;9.66;100.00
41222;BME280;26952;42.884;23.918;2022-11-12T14:26:35;97334.72;;;9.65;100.00
41222;BME280;26952;42.884;23.918;2022-11-12T14:29:01;97334.97;;;9.62;100.00
41222;BME280;26952;42.884;23.918;2022-11-12T14:31:27;97329.13;;;9.58;100.00
41222;BME280;26952;42.884;23.918;2022-11-12T14:33:52;97326.72;;;9.55;100.00
41222;BME280;26952;42.884;23.918;2022-11-12T14:36:18;97336.09;;;9.59;100.00
41222;BME280;26952;42.884;23.918;2022-11-12T14:38:49;97342.34;;;9.58;100.00
41222;BME280;26952;42.884;23.918;2022-11-12T14:41:29;97326.03;;;9.53;100.00
41222;BME280;26952;42.884;23.918;2022-11-12T14:43:58;97336.00;;;9.50;100.00
41222;BME280;26952;42.884;23.918;2022-11-12T14:46:37;97331.84;;;9.47;100.00
41222;BME280;26952;42.884;23.918;2022-11-12T14:49:06;97316.91;;;9.37;100.00
41222;BME280;26952;42.884;23.918;2022-11-12T14:51:46;97317.25;;;9.32;100.00
41222;BME280;26952;42.884;23.918;2022-11-12T14:54:37;97311.09;;;9.22;100.00